createdAt,value
2023-04-22T00:00:55.003Z,12.25
2023-04-22T00:03:23.267Z,13.10
2023-04-22T00:05:50.811Z,12.10
2023-04-22T00:08:18.584Z,11.73
2023-04-22T00:10:45.971Z,12.15
2023-04-22T00:13:13.474Z,12.02
2023-04-22T00:15:40.787Z,12.15
2023-04-22T00:18:14.170Z,10.88
2023-04-22T00:20:46.127Z,11.43
2023-04-22T00:23:13.736Z,13.07
2023-04-22T00:25:41.406Z,13.82
2023-04-22T00:28:09.293Z,13.50
2023-04-22T00:30:36.866Z,14.55
2023-04-22T00:33:04.662Z,14.75
2023-04-22T00:35:31.965Z,15.13
2023-04-22T00:37:59.908Z,14.50
2023-04-22T00:40:27.369Z,14.77
2023-04-22T00:42:55.897Z,14.82
2023-04-22T00:45:23.210Z,14.10
2023-04-22T00:47:51.237Z,14.93
2023-04-22T00:50:18.792Z,15.15
2023-04-22T00:52:46.305Z,14.20
2023-04-22T00:55:13.765Z,14.13
2023-04-22T00:57:41.566Z,14.25
2023-04-22T01:00:10.453Z,14.60
2023-04-22T01:02:41.367Z,14.63
2023-04-22T01:05:10.320Z,13.40
2023-04-22T01:07:38.272Z,13.90
2023-04-22T01:10:06.650Z,13.82
2023-04-22T01:12:34.394Z,12.90
2023-04-22T01:15:04.684Z,11.65
2023-04-22T01:17:33.864Z,12.35
2023-04-22T01:20:05.525Z,10.88
2023-04-22T01:22:41.679Z,12.05
2023-04-22T01:25:13.128Z,10.52
2023-04-22T01:27:41.614Z,10.93
2023-04-22T01:30:11.054Z,10.50
2023-04-22T01:32:40.976Z,11.85
2023-04-22T01:35:10.273Z,13.85
2023-04-22T01:37:38.572Z,14.70
2023-04-22T01:40:07.916Z,15.55
2023-04-22T01:42:36.535Z,15.30
2023-04-22T01:45:04.738Z,13.85
2023-04-22T01:47:32.292Z,13.38
2023-04-22T01:49:59.706Z,13.68
2023-04-22T01:52:27.909Z,14.07
2023-04-22T01:54:55.755Z,14.02
2023-04-22T01:57:23.313Z,14.82
2023-04-22T01:59:50.619Z,12.40
2023-04-22T02:02:18.289Z,14.60
2023-04-22T02:04:45.628Z,14.05
2023-04-22T02:07:13.216Z,13.80
2023-04-22T02:09:41.121Z,13.18
2023-04-22T02:12:09.212Z,12.73
2023-04-22T02:14:36.492Z,13.13
2023-04-22T02:17:04.091Z,13.25
2023-04-22T02:19:31.360Z,12.15
2023-04-22T02:21:59.319Z,10.80
2023-04-22T02:24:26.945Z,10.40
2023-04-22T02:26:54.504Z,10.10
2023-04-22T02:29:21.794Z,9.23
2023-04-22T02:31:49.467Z,12.63
2023-04-22T02:34:16.893Z,12.57
2023-04-22T02:36:44.472Z,12.85
2023-04-22T02:39:11.778Z,11.68
2023-04-22T02:41:39.355Z,12.63
2023-04-22T02:44:06.726Z,12.77
2023-04-22T02:46:34.377Z,15.18
2023-04-22T02:49:01.710Z,12.77
2023-04-22T02:51:29.478Z,12.60
2023-04-22T02:53:56.778Z,16.23
2023-04-22T02:56:24.381Z,12.95
2023-04-22T02:58:51.644Z,11.32
2023-04-22T03:01:19.245Z,11.45
2023-04-22T03:03:46.785Z,12.80
2023-04-22T03:06:14.697Z,10.85
2023-04-22T03:08:41.935Z,10.35
2023-04-22T03:11:09.533Z,11.13
2023-04-22T03:13:36.804Z,10.07
2023-04-22T03:16:04.447Z,10.25
2023-04-22T03:18:32.032Z,10.90
2023-04-22T03:21:03.216Z,11.02
2023-04-22T03:23:30.625Z,12.75
2023-04-22T03:25:58.149Z,10.75
2023-04-22T03:28:25.572Z,11.00
2023-04-22T03:30:53.129Z,10.57
2023-04-22T03:33:21.092Z,11.75
2023-04-22T03:35:51.432Z,10.65
2023-04-22T03:38:18.742Z,10.18
2023-04-22T03:40:46.380Z,10.50
2023-04-22T03:43:13.796Z,10.55
2023-04-22T03:45:41.434Z,11.43
2023-04-22T03:48:09.038Z,11.23
2023-04-22T03:50:36.631Z,10.50
2023-04-22T03:53:03.877Z,10.70
2023-04-22T03:55:31.476Z,10.15
2023-04-22T03:57:58.985Z,9.95
2023-04-22T04:00:26.697Z,9.45
2023-04-22T04:02:54.214Z,11.38
2023-04-22T04:05:22.030Z,11.50
2023-04-22T04:07:49.322Z,11.35
2023-04-22T04:10:17.054Z,10.80
2023-04-22T04:12:44.331Z,10.57
2023-04-22T04:15:12.159Z,13.63
2023-04-22T04:17:39.923Z,12.95
2023-04-22T04:20:08.035Z,12.45
2023-04-22T04:22:35.360Z,11.52
2023-04-22T04:25:03.550Z,12.80
2023-04-22T04:27:30.825Z,10.68
2023-04-22T04:29:58.866Z,12.88
2023-04-22T04:32:26.165Z,12.65
2023-04-22T04:34:54.078Z,12.00
2023-04-22T04:37:22.495Z,12.48
2023-04-22T04:39:50.122Z,12.20
2023-04-22T04:42:17.499Z,12.15
2023-04-22T04:44:45.045Z,11.88
2023-04-22T04:47:13.224Z,12.15
2023-04-22T04:49:41.209Z,11.07
2023-04-22T04:52:11.462Z,11.20
2023-04-22T04:54:39.071Z,10.52
2023-04-22T04:57:06.977Z,11.80
2023-04-22T04:59:38.453Z,11.95
2023-04-22T05:02:06.125Z,10.90
2023-04-22T05:04:33.905Z,13.98
2023-04-22T05:07:01.723Z,12.65
2023-04-22T05:09:29.348Z,12.45
2023-04-22T05:11:56.697Z,11.50
2023-04-22T05:14:24.326Z,10.88
2023-04-22T05:16:51.904Z,10.73
2023-04-22T05:19:19.617Z,14.15
2023-04-22T05:21:46.904Z,16.60
2023-04-22T05:24:14.485Z,14.52
2023-04-22T05:26:42.161Z,13.23
2023-04-22T05:29:09.726Z,15.45
2023-04-22T05:31:36.998Z,17.02
2023-04-22T05:34:04.601Z,18.73
2023-04-22T05:36:32.178Z,21.60
2023-04-22T05:38:59.758Z,20.52
2023-04-22T05:41:27.047Z,22.20
2023-04-22T05:43:54.746Z,23.13
2023-04-22T05:46:22.185Z,19.90
2023-04-22T05:48:49.867Z,21.15
2023-04-22T05:51:17.255Z,20.35
2023-04-22T05:53:44.841Z,21.73
2023-04-22T05:56:12.113Z,21.92
2023-04-22T05:58:39.685Z,17.48
2023-04-22T06:01:06.953Z,23.02
2023-04-22T06:03:34.800Z,18.92
2023-04-22T06:06:02.188Z,15.75
2023-04-22T06:08:31.789Z,15.77
2023-04-22T06:10:59.146Z,15.02
2023-04-22T06:13:27.609Z,15.00
2023-04-22T06:15:55.049Z,15.30
2023-04-22T06:18:22.706Z,14.70
2023-04-22T06:20:50.500Z,14.85
2023-04-22T06:23:18.114Z,16.13
2023-04-22T06:25:45.555Z,16.73
2023-04-22T06:28:13.206Z,15.65
2023-04-22T06:30:40.560Z,16.27
2023-04-22T06:33:08.235Z,16.13
2023-04-22T06:35:35.702Z,17.63
2023-04-22T06:38:03.367Z,16.02
2023-04-22T06:40:30.789Z,17.08
2023-04-22T06:42:58.445Z,18.23
2023-04-22T06:45:25.836Z,15.45
2023-04-22T06:47:56.835Z,15.30
2023-04-22T06:50:24.170Z,15.25
2023-04-22T06:52:51.899Z,14.00
2023-04-22T06:55:19.259Z,14.20
2023-04-22T06:57:47.079Z,13.60
2023-04-22T07:00:14.896Z,12.85
2023-04-22T07:02:42.687Z,14.32
2023-04-22T07:05:10.120Z,12.65
2023-04-22T07:07:37.731Z,12.93
2023-04-22T07:10:06.258Z,18.83
2023-04-22T07:12:33.836Z,25.02
2023-04-22T07:15:01.117Z,16.67
2023-04-22T07:17:28.703Z,15.93
2023-04-22T07:19:56.062Z,13.13
2023-04-22T07:22:23.584Z,12.20
2023-04-22T07:24:50.962Z,12.00
2023-04-22T07:27:18.577Z,12.63
2023-04-22T07:29:45.866Z,12.32
2023-04-22T07:32:13.785Z,11.18
2023-04-22T07:34:41.929Z,12.05
2023-04-22T07:37:10.031Z,11.65
2023-04-22T07:39:37.561Z,11.18
2023-04-22T07:42:05.879Z,11.15
2023-04-22T07:44:33.100Z,10.48
2023-04-22T07:47:00.949Z,9.90
2023-04-22T07:49:28.385Z,10.15
2023-04-22T07:51:56.880Z,9.63
2023-04-22T07:54:24.155Z,10.05
2023-04-22T07:56:51.733Z,13.00
2023-04-22T07:59:19.009Z,10.60
2023-04-22T08:01:46.764Z,13.63
2023-04-22T08:04:14.283Z,7.82
2023-04-22T08:06:42.178Z,7.57
2023-04-22T08:09:10.670Z,6.88
2023-04-22T08:11:38.167Z,6.70
2023-04-22T08:14:05.473Z,6.70
2023-04-22T08:16:34.548Z,5.63
2023-04-22T08:19:01.855Z,7.85
2023-04-22T08:21:29.565Z,8.52
2023-04-22T08:23:57.283Z,6.10
2023-04-22T08:26:24.889Z,7.97
2023-04-22T08:28:52.248Z,4.85
2023-04-22T08:31:19.948Z,4.35
2023-04-22T08:33:47.297Z,5.15
2023-04-22T08:36:15.166Z,4.60
2023-04-22T08:38:42.490Z,4.97
2023-04-22T08:41:10.915Z,4.57
2023-04-22T08:43:38.715Z,4.63
2023-04-22T08:46:06.688Z,4.30
2023-04-22T08:48:33.984Z,5.07
2023-04-22T08:51:01.860Z,4.40
2023-04-22T08:53:29.614Z,6.35
2023-04-22T08:55:58.337Z,10.07
2023-04-22T08:58:27.304Z,4.40
2023-04-22T09:00:56.451Z,4.35
2023-04-22T09:03:24.480Z,4.30
2023-04-22T09:05:53.787Z,4.00
2023-04-22T09:08:21.922Z,4.05
2023-04-22T09:10:50.378Z,4.30
2023-04-22T09:13:18.318Z,3.95
2023-04-22T09:15:46.384Z,5.45
2023-04-22T09:18:19.137Z,4.10
2023-04-22T09:20:56.165Z,9.05
2023-04-22T09:23:23.541Z,4.90
2023-04-22T09:25:51.406Z,4.13
2023-04-22T09:28:19.672Z,4.53
2023-04-22T09:30:48.610Z,3.70
2023-04-22T09:33:17.829Z,3.75
2023-04-22T09:35:46.182Z,3.63
2023-04-22T09:38:13.840Z,3.40
2023-04-22T09:40:45.143Z,3.42
2023-04-22T09:43:19.893Z,3.65
2023-04-22T09:45:47.772Z,9.60
2023-04-22T09:48:20.007Z,4.07
2023-04-22T09:50:52.015Z,2.88
2023-04-22T09:53:21.932Z,3.72
2023-04-22T09:55:55.740Z,3.60
2023-04-22T09:58:28.033Z,3.45
2023-04-22T10:00:59.436Z,4.43
2023-04-22T10:03:26.835Z,3.50
2023-04-22T10:05:54.594Z,4.40
2023-04-22T10:08:21.973Z,3.25
2023-04-22T10:10:49.679Z,3.10
2023-04-22T10:13:17.191Z,3.80
2023-04-22T10:15:55.199Z,4.15
2023-04-22T10:18:26.422Z,4.15
2023-04-22T10:20:56.910Z,3.40
2023-04-22T10:23:25.626Z,3.95
2023-04-22T10:25:57.043Z,3.35
2023-04-22T10:28:30.849Z,3.45
2023-04-22T10:30:58.559Z,3.38
2023-04-22T10:33:29.093Z,3.25
2023-04-22T10:36:16.491Z,3.22
2023-04-22T10:38:56.482Z,3.10
2023-04-22T10:41:32.520Z,3.20
2023-04-22T10:44:09.710Z,3.00
2023-04-22T10:46:58.812Z,2.95
2023-04-22T10:49:30.393Z,3.15
2023-04-22T10:52:00.584Z,2.78
2023-04-22T10:54:31.570Z,2.58
2023-04-22T10:57:07.667Z,2.75
2023-04-22T10:59:50.516Z,2.45
2023-04-22T11:02:20.391Z,2.55
2023-04-22T11:04:50.028Z,2.67
2023-04-22T11:07:26.751Z,2.53
2023-04-22T11:10:07.866Z,3.63
2023-04-22T11:12:38.724Z,4.63
2023-04-22T11:15:23.190Z,2.65
2023-04-22T11:17:55.168Z,4.80
2023-04-22T11:20:23.058Z,3.42
2023-04-22T11:22:56.303Z,2.45
2023-04-22T11:25:26.123Z,2.83
2023-04-22T11:27:55.277Z,3.17
2023-04-22T11:30:26.551Z,3.58
2023-04-22T11:32:59.342Z,2.45
2023-04-22T11:35:32.733Z,2.85
2023-04-22T11:38:03.747Z,2.90
2023-04-22T11:40:38.344Z,3.70
2023-04-22T11:43:09.384Z,2.88
2023-04-22T11:45:39.349Z,5.70
2023-04-22T11:48:10.029Z,2.58
2023-04-22T11:50:44.282Z,2.90
2023-04-22T11:53:24.337Z,3.88
2023-04-22T11:55:52.960Z,3.00
2023-04-22T11:58:27.474Z,2.80
2023-04-22T12:00:57.825Z,2.88
2023-04-22T12:03:31.385Z,2.67
2023-04-22T12:06:06.478Z,2.63
2023-04-22T12:08:45.150Z,2.90
2023-04-22T12:11:13.596Z,2.70
2023-04-22T12:13:43.632Z,2.40
2023-04-22T12:16:13.748Z,2.60
2023-04-22T12:18:50.475Z,2.58
2023-04-22T12:21:25.574Z,2.80
2023-04-22T12:24:05.258Z,2.88
2023-04-22T12:26:32.801Z,2.58
2023-04-22T12:29:01.635Z,2.90
2023-04-22T12:31:29.236Z,4.15
2023-04-22T12:33:57.516Z,3.10
2023-04-22T12:36:25.373Z,3.40
2023-04-22T12:39:12.908Z,3.10
2023-04-22T12:41:40.155Z,2.80
2023-04-22T12:44:08.839Z,2.80
2023-04-22T12:46:36.410Z,8.55
2023-04-22T12:49:04.114Z,3.15
2023-04-22T12:51:31.984Z,2.78
2023-04-22T12:53:59.771Z,2.55
2023-04-22T12:56:27.121Z,2.35
2023-04-22T12:58:54.686Z,2.85
2023-04-22T13:01:22.025Z,3.33
2023-04-22T13:03:53.311Z,1.90
2023-04-22T13:06:20.827Z,7.25
2023-04-22T13:08:48.413Z,2.80
2023-04-22T13:11:15.734Z,2.28
2023-04-22T13:13:43.317Z,2.05
2023-04-22T13:16:11.215Z,2.35
2023-04-22T13:18:38.848Z,2.08
2023-04-22T13:21:06.480Z,2.38
2023-04-22T13:23:37.468Z,2.53
2023-04-22T13:26:04.922Z,2.25
2023-04-22T13:28:33.873Z,1.77
2023-04-22T13:31:01.975Z,3.10
2023-04-22T13:33:29.622Z,5.32
2023-04-22T13:35:59.266Z,2.67
2023-04-22T13:38:26.783Z,1.88
2023-04-22T13:40:54.116Z,2.58
2023-04-22T13:43:22.784Z,2.13
2023-04-22T13:45:50.191Z,2.30
2023-04-22T13:48:17.830Z,2.65
2023-04-22T13:50:45.141Z,2.35
2023-04-22T13:53:14.190Z,3.33
2023-04-22T13:55:43.362Z,2.38
2023-04-22T13:58:11.384Z,2.60
2023-04-22T14:00:38.736Z,2.42
2023-04-22T14:03:06.593Z,2.40
2023-04-22T14:05:34.061Z,3.15
2023-04-22T14:08:01.742Z,2.58
2023-04-22T14:10:28.994Z,2.28
2023-04-22T14:12:56.601Z,2.15
2023-04-22T14:15:25.481Z,2.10
2023-04-22T14:17:54.153Z,2.20
2023-04-22T14:20:22.087Z,2.60
2023-04-22T14:22:49.686Z,2.50
2023-04-22T14:25:16.974Z,5.63
2023-04-22T14:27:44.631Z,3.60
2023-04-22T14:30:13.231Z,3.20
2023-04-22T14:32:40.919Z,2.65
2023-04-22T14:35:08.543Z,2.95
2023-04-22T14:37:36.824Z,2.80
2023-04-22T14:40:04.886Z,2.80
2023-04-22T14:42:32.675Z,2.67
2023-04-22T14:45:00.246Z,2.55
2023-04-22T14:47:29.027Z,2.70
2023-04-22T14:49:56.412Z,3.10
2023-04-22T14:52:24.075Z,3.25
2023-04-22T14:54:52.189Z,2.80
2023-04-22T14:57:19.799Z,2.95
2023-04-22T14:59:47.471Z,3.00
2023-04-22T15:02:16.070Z,2.75
2023-04-22T15:04:44.855Z,2.83
2023-04-22T15:07:12.485Z,3.15
2023-04-22T15:09:40.278Z,3.28
2023-04-22T15:12:08.258Z,3.15
2023-04-22T15:14:36.714Z,3.10
2023-04-22T15:17:05.821Z,3.13
2023-04-22T15:19:33.490Z,3.10
2023-04-22T15:22:01.387Z,3.22
2023-04-22T15:24:28.974Z,3.38
2023-04-22T15:26:58.160Z,2.72
2023-04-22T15:29:25.828Z,2.90
2023-04-22T15:31:54.570Z,6.10
2023-04-22T15:34:22.428Z,5.07
2023-04-22T15:36:50.250Z,3.70
2023-04-22T15:39:17.701Z,3.85
2023-04-22T15:41:45.984Z,3.30
2023-04-22T15:44:14.762Z,3.08
2023-04-22T15:46:42.486Z,3.38
2023-04-22T15:49:09.958Z,3.67
2023-04-22T15:51:37.682Z,3.20
2023-04-22T15:54:05.108Z,3.00
2023-04-22T15:56:34.604Z,3.03
2023-04-22T15:59:01.924Z,3.50
2023-04-22T16:01:29.781Z,3.22
2023-04-22T16:03:57.613Z,17.25
2023-04-22T16:06:25.639Z,3.72
2023-04-22T16:08:53.070Z,8.18
2023-04-22T16:11:20.806Z,9.82
2023-04-22T16:13:48.295Z,5.03
2023-04-22T16:16:16.746Z,5.38
2023-04-22T16:18:44.586Z,3.38
2023-04-22T16:21:12.280Z,3.70
2023-04-22T16:23:39.584Z,3.88
2023-04-22T16:26:07.145Z,3.85
2023-04-22T16:28:34.392Z,4.32
2023-04-22T16:31:02.552Z,4.68
2023-04-22T16:33:29.982Z,4.68
2023-04-22T16:35:57.800Z,5.95
2023-04-22T16:38:25.200Z,11.98
2023-04-22T16:40:54.421Z,6.97
2023-04-22T16:43:22.118Z,4.35
2023-04-22T16:45:49.776Z,5.45
2023-04-22T16:48:17.304Z,4.38
2023-04-22T16:50:44.869Z,4.85
2023-04-22T16:53:12.356Z,5.40
2023-04-22T16:55:40.663Z,3.78
2023-04-22T16:58:07.969Z,3.83
2023-04-22T17:00:36.076Z,4.47
2023-04-22T17:03:04.058Z,3.88
2023-04-22T17:05:33.007Z,3.88
2023-04-22T17:08:00.501Z,4.05
2023-04-22T17:10:29.101Z,5.07
2023-04-22T17:12:56.552Z,3.90
2023-04-22T17:15:24.300Z,4.82
2023-04-22T17:17:51.767Z,4.50
2023-04-22T17:20:19.505Z,6.03
2023-04-22T17:22:46.894Z,6.50
2023-04-22T17:25:14.489Z,5.47
2023-04-22T17:27:41.818Z,4.97
2023-04-22T17:30:09.916Z,5.75
2023-04-22T17:32:37.257Z,5.65
2023-04-22T17:35:05.322Z,7.05
2023-04-22T17:37:32.643Z,13.70
2023-04-22T17:40:00.235Z,10.65
2023-04-22T17:42:38.826Z,6.20
2023-04-22T17:45:13.111Z,4.95
2023-04-22T17:47:40.437Z,6.15
2023-04-22T17:50:08.963Z,5.03
2023-04-22T17:52:36.442Z,4.72
2023-04-22T17:55:04.627Z,5.05
2023-04-22T17:57:35.079Z,4.97
2023-04-22T18:00:03.965Z,7.00
2023-04-22T18:02:31.726Z,6.22
2023-04-22T18:04:59.373Z,7.55
2023-04-22T18:07:26.639Z,7.93
2023-04-22T18:09:54.203Z,8.70
2023-04-22T18:12:24.214Z,10.63
2023-04-22T18:14:51.880Z,9.98
2023-04-22T18:17:21.739Z,9.45
2023-04-22T18:19:50.931Z,7.40
2023-04-22T18:22:19.484Z,7.18
2023-04-22T18:24:47.176Z,8.50
2023-04-22T18:27:14.486Z,7.43
2023-04-22T18:29:42.612Z,6.70
2023-04-22T18:32:11.415Z,6.22
2023-04-22T18:34:39.749Z,6.20
2023-04-22T18:37:07.423Z,6.70
2023-04-22T18:39:34.956Z,6.45
2023-04-22T18:42:02.750Z,10.38
2023-04-22T18:44:30.598Z,7.60
2023-04-22T18:46:58.495Z,8.30
2023-04-22T18:49:26.461Z,8.27
2023-04-22T18:51:53.823Z,6.90
2023-04-22T18:54:30.678Z,6.30
2023-04-22T18:56:58.340Z,5.22
2023-04-22T18:59:26.172Z,6.53
2023-04-22T19:01:53.600Z,5.43
2023-04-22T19:04:21.501Z,5.82
2023-04-22T19:06:50.720Z,5.72
2023-04-22T19:09:18.306Z,4.80
2023-04-22T19:11:46.172Z,5.38
2023-04-22T19:14:14.604Z,5.32
2023-04-22T19:16:43.136Z,5.32
2023-04-22T19:19:12.014Z,5.28
2023-04-22T19:21:39.799Z,5.22
2023-04-22T19:24:07.942Z,5.20
2023-04-22T19:26:35.779Z,4.93
2023-04-22T19:29:03.460Z,5.03
2023-04-22T19:31:31.649Z,5.20
2023-04-22T19:33:59.533Z,5.50
2023-04-22T19:36:27.101Z,4.95
2023-04-22T19:38:54.721Z,5.22
2023-04-22T19:41:22.386Z,5.70
2023-04-22T19:43:49.942Z,5.63
2023-04-22T19:46:17.292Z,5.75
2023-04-22T19:48:45.279Z,5.75
2023-04-22T19:51:12.834Z,6.25
2023-04-22T19:53:41.555Z,6.22
2023-04-22T19:56:09.656Z,5.88
2023-04-22T19:58:38.968Z,6.10
2023-04-22T20:01:06.624Z,5.93
2023-04-22T20:03:35.329Z,5.93
2023-04-22T20:06:03.850Z,5.88
2023-04-22T20:08:31.941Z,6.35
2023-04-22T20:11:00.723Z,6.20
2023-04-22T20:13:28.667Z,6.22
2023-04-22T20:15:56.300Z,5.57
2023-04-22T20:18:24.227Z,8.43
2023-04-22T20:20:57.347Z,7.22
2023-04-22T20:23:27.930Z,8.07
2023-04-22T20:25:58.906Z,7.32
2023-04-22T20:28:46.060Z,6.30
2023-04-22T20:31:16.707Z,7.35
2023-04-22T20:33:45.006Z,7.20
2023-04-22T20:36:16.861Z,7.07
2023-04-22T20:38:48.813Z,7.10
2023-04-22T20:41:20.224Z,7.82
2023-04-22T20:43:47.928Z,8.13
2023-04-22T20:46:15.215Z,7.88
2023-04-22T20:48:42.895Z,7.90
2023-04-22T20:51:10.209Z,8.07
2023-04-22T20:53:38.238Z,7.93
2023-04-22T20:56:06.116Z,7.78
2023-04-22T20:58:33.686Z,7.68
2023-04-22T21:01:01.191Z,7.70
2023-04-22T21:03:29.933Z,8.23
2023-04-22T21:05:58.508Z,7.18
2023-04-22T21:08:27.241Z,7.97
2023-04-22T21:10:56.781Z,7.47
2023-04-22T21:13:24.712Z,7.15
2023-04-22T21:16:08.309Z,7.70
2023-04-22T21:18:40.815Z,7.53
2023-04-22T21:21:10.099Z,7.65
2023-04-22T21:23:40.368Z,7.68
2023-04-22T21:26:10.550Z,7.23
2023-04-22T21:28:39.242Z,8.02
2023-04-22T21:31:07.404Z,8.35
2023-04-22T21:33:35.015Z,8.80
2023-04-22T21:36:02.465Z,10.65
2023-04-22T21:38:30.125Z,8.13
2023-04-22T21:40:57.453Z,8.52
2023-04-22T21:43:24.925Z,8.60
2023-04-22T21:45:52.157Z,9.00
2023-04-22T21:48:19.701Z,8.52
2023-04-22T21:50:47.035Z,8.90
2023-04-22T21:53:14.770Z,9.13
2023-04-22T21:55:42.148Z,8.95
2023-04-22T21:58:09.741Z,8.65
2023-04-22T22:00:37.986Z,8.65
2023-04-22T22:03:06.483Z,8.38
2023-04-22T22:05:33.909Z,8.93
2023-04-22T22:08:01.941Z,8.38
2023-04-22T22:10:29.501Z,8.48
2023-04-22T22:12:57.113Z,8.40
2023-04-22T22:15:24.512Z,7.90
2023-04-22T22:17:52.249Z,8.48
2023-04-22T22:20:22.591Z,7.65
2023-04-22T22:22:50.258Z,7.95
2023-04-22T22:25:18.408Z,7.85
2023-04-22T22:27:47.171Z,7.78
2023-04-22T22:30:17.044Z,8.00
2023-04-22T22:32:45.471Z,7.75
2023-04-22T22:35:13.217Z,7.32
2023-04-22T22:37:41.853Z,7.35
2023-04-22T22:40:10.241Z,8.25
2023-04-22T22:42:37.840Z,7.95
2023-04-22T22:45:05.754Z,7.43
2023-04-22T22:47:33.536Z,8.18
2023-04-22T22:50:00.880Z,8.35
2023-04-22T22:52:28.731Z,7.32
2023-04-22T22:54:56.020Z,7.80
2023-04-22T22:57:23.563Z,6.78
2023-04-22T22:59:50.869Z,7.43
2023-04-22T23:02:18.631Z,7.65
2023-04-22T23:04:46.328Z,6.93
2023-04-22T23:07:14.832Z,7.57
2023-04-22T23:09:42.373Z,7.55
2023-04-22T23:12:09.918Z,8.38
2023-04-22T23:14:37.161Z,7.93
2023-04-22T23:17:04.854Z,7.60
2023-04-22T23:19:33.785Z,8.40
2023-04-22T23:22:02.369Z,8.20
2023-04-22T23:24:30.006Z,8.30
2023-04-22T23:26:57.876Z,9.25
2023-04-22T23:29:25.497Z,9.05
2023-04-22T23:31:53.514Z,10.15
2023-04-22T23:34:25.878Z,10.63
2023-04-22T23:36:57.118Z,11.07
2023-04-22T23:39:24.665Z,11.23
2023-04-22T23:41:52.135Z,10.98
2023-04-22T23:44:19.464Z,11.75
2023-04-22T23:46:48.143Z,12.35
2023-04-22T23:49:15.951Z,13.55
2023-04-22T23:51:43.904Z,13.00
2023-04-22T23:54:11.185Z,12.60
2023-04-22T23:56:39.237Z,11.52
2023-04-22T23:59:07.280Z,12.00
